sensor_id;sensor_type;location;lat;lon;timestamp;P1;durP1;ratioP1;P2;durP2;ratioP2
21213;SDS011;10764;50.850;2.904;2023-04-15T00:01:40;1.42;;;0.38;;
21213;SDS011;10764;50.850;2.904;2023-04-15T00:04:07;0.77;;;0.40;;
21213;SDS011;10764;50.850;2.904;2023-04-15T00:06:35;0.85;;;0.35;;
21213;SDS011;10764;50.850;2.904;2023-04-15T00:09:02;1.77;;;0.50;;
21213;SDS011;10764;50.850;2.904;2023-04-15T00:11:29;0.60;;;0.40;;
21213;SDS011;10764;50.850;2.904;2023-04-15T00:13:56;1.17;;;0.55;;
21213;SDS011;10764;50.850;2.904;2023-04-15T00:16:23;0.80;;;0.30;;
21213;SDS011;10764;50.850;2.904;2023-04-15T00:18:50;1.00;;;0.50;;
21213;SDS011;10764;50.850;2.904;2023-04-15T00:21:18;1.50;;;0.60;;
21213;SDS011;10764;50.850;2.904;2023-04-15T00:23:45;1.30;;;0.50;;
21213;SDS011;10764;50.850;2.904;2023-04-15T00:26:18;0.60;;;0.40;;
21213;SDS011;10764;50.850;2.904;2023-04-15T00:28:47;1.65;;;0.50;;
21213;SDS011;10764;50.850;2.904;2023-04-15T00:31:15;0.80;;;0.55;;
21213;SDS011;10764;50.850;2.904;2023-04-15T00:33:43;0.98;;;0.47;;
21213;SDS011;10764;50.850;2.904;2023-04-15T00:36:10;1.30;;;0.50;;
21213;SDS011;10764;50.850;2.904;2023-04-15T00:38:37;0.77;;;0.50;;
21213;SDS011;10764;50.850;2.904;2023-04-15T00:41:03;1.00;;;0.57;;
21213;SDS011;10764;50.850;2.904;2023-04-15T00:43:30;0.60;;;0.40;;
21213;SDS011;10764;50.850;2.904;2023-04-15T00:45:57;0.82;;;0.50;;
21213;SDS011;10764;50.850;2.904;2023-04-15T00:48:26;1.05;;;0.60;;
21213;SDS011;10764;50.850;2.904;2023-04-15T00:50:53;0.60;;;0.40;;
21213;SDS011;10764;50.850;2.904;2023-04-15T00:53:20;0.73;;;0.40;;
21213;SDS011;10764;50.850;2.904;2023-04-15T00:55:47;0.77;;;0.50;;
21213;SDS011;10764;50.850;2.904;2023-04-15T00:58:14;1.27;;;0.60;;
21213;SDS011;10764;50.850;2.904;2023-04-15T01:00:42;0.70;;;0.50;;
21213;SDS011;10764;50.850;2.904;2023-04-15T01:03:10;0.80;;;0.40;;
21213;SDS011;10764;50.850;2.904;2023-04-15T01:05:37;0.95;;;0.50;;
21213;SDS011;10764;50.850;2.904;2023-04-15T01:08:05;1.42;;;0.50;;
21213;SDS011;10764;50.850;2.904;2023-04-15T01:10:32;1.47;;;0.50;;
21213;SDS011;10764;50.850;2.904;2023-04-15T01:12:59;1.65;;;0.70;;
21213;SDS011;10764;50.850;2.904;2023-04-15T01:15:26;1.43;;;0.70;;
21213;SDS011;10764;50.850;2.904;2023-04-15T01:17:52;0.77;;;0.50;;
21213;SDS011;10764;50.850;2.904;2023-04-15T01:20:19;1.20;;;0.60;;
21213;SDS011;10764;50.850;2.904;2023-04-15T01:22:47;0.80;;;0.50;;
21213;SDS011;10764;50.850;2.904;2023-04-15T01:25:17;0.93;;;0.52;;
21213;SDS011;10764;50.850;2.904;2023-04-15T01:27:45;1.73;;;0.60;;
21213;SDS011;10764;50.850;2.904;2023-04-15T01:30:12;1.17;;;0.60;;
21213;SDS011;10764;50.850;2.904;2023-04-15T01:32:39;1.00;;;0.60;;
21213;SDS011;10764;50.850;2.904;2023-04-15T01:35:07;0.67;;;0.53;;
21213;SDS011;10764;50.850;2.904;2023-04-15T01:37:34;0.60;;;0.40;;
21213;SDS011;10764;50.850;2.904;2023-04-15T01:40:01;0.93;;;0.50;;
21213;SDS011;10764;50.850;2.904;2023-04-15T01:42:28;0.65;;;0.40;;
21213;SDS011;10764;50.850;2.904;2023-04-15T01:44:55;1.48;;;0.50;;
21213;SDS011;10764;50.850;2.904;2023-04-15T01:47:22;0.70;;;0.40;;
21213;SDS011;10764;50.850;2.904;2023-04-15T01:49:50;1.10;;;0.52;;
21213;SDS011;10764;50.850;2.904;2023-04-15T01:52:17;1.90;;;0.60;;
21213;SDS011;10764;50.850;2.904;2023-04-15T01:54:44;0.80;;;0.50;;
21213;SDS011;10764;50.850;2.904;2023-04-15T01:57:11;0.68;;;0.40;;
21213;SDS011;10764;50.850;2.904;2023-04-15T01:59:38;0.80;;;0.40;;
21213;SDS011;10764;50.850;2.904;2023-04-15T02:02:04;0.90;;;0.43;;
21213;SDS011;10764;50.850;2.904;2023-04-15T02:04:31;1.30;;;0.50;;
21213;SDS011;10764;50.850;2.904;2023-04-15T02:06:59;1.02;;;0.60;;
21213;SDS011;10764;50.850;2.904;2023-04-15T02:09:26;1.33;;;0.50;;
21213;SDS011;10764;50.850;2.904;2023-04-15T02:11:53;0.63;;;0.40;;
21213;SDS011;10764;50.850;2.904;2023-04-15T02:14:20;1.53;;;0.70;;
21213;SDS011;10764;50.850;2.904;2023-04-15T02:16:46;0.90;;;0.50;;
21213;SDS011;10764;50.850;2.904;2023-04-15T02:19:14;1.33;;;0.60;;
21213;SDS011;10764;50.850;2.904;2023-04-15T02:21:41;0.70;;;0.50;;
21213;SDS011;10764;50.850;2.904;2023-04-15T02:24:08;1.10;;;0.57;;
21213;SDS011;10764;50.850;2.904;2023-04-15T02:26:35;0.75;;;0.45;;
21213;SDS011;10764;50.850;2.904;2023-04-15T02:29:02;0.70;;;0.50;;
21213;SDS011;10764;50.850;2.904;2023-04-15T02:31:29;1.90;;;0.50;;
21213;SDS011;10764;50.850;2.904;2023-04-15T02:33:59;1.33;;;0.50;;
21213;SDS011;10764;50.850;2.904;2023-04-15T02:36:28;1.65;;;0.60;;
21213;SDS011;10764;50.850;2.904;2023-04-15T02:38:57;0.80;;;0.50;;
21213;SDS011;10764;50.850;2.904;2023-04-15T02:41:24;0.73;;;0.50;;
21213;SDS011;10764;50.850;2.904;2023-04-15T02:43:53;1.35;;;0.70;;
21213;SDS011;10764;50.850;2.904;2023-04-15T02:46:20;0.60;;;0.40;;
21213;SDS011;10764;50.850;2.904;2023-04-15T02:48:48;1.23;;;0.50;;
21213;SDS011;10764;50.850;2.904;2023-04-15T02:51:16;0.90;;;0.50;;
21213;SDS011;10764;50.850;2.904;2023-04-15T02:53:46;1.17;;;0.60;;
21213;SDS011;10764;50.850;2.904;2023-04-15T02:56:14;1.52;;;0.50;;
21213;SDS011;10764;50.850;2.904;2023-04-15T02:58:42;1.63;;;0.65;;
21213;SDS011;10764;50.850;2.904;2023-04-15T03:01:10;0.80;;;0.55;;
21213;SDS011;10764;50.850;2.904;2023-04-15T03:03:38;0.95;;;0.50;;
21213;SDS011;10764;50.850;2.904;2023-04-15T03:06:05;0.80;;;0.50;;
21213;SDS011;10764;50.850;2.904;2023-04-15T03:08:32;0.85;;;0.40;;
21213;SDS011;10764;50.850;2.904;2023-04-15T03:11:00;1.20;;;0.60;;
21213;SDS011;10764;50.850;2.904;2023-04-15T03:13:27;1.50;;;0.40;;
21213;SDS011;10764;50.850;2.904;2023-04-15T03:15:56;1.47;;;0.50;;
21213;SDS011;10764;50.850;2.904;2023-04-15T03:18:23;0.68;;;0.40;;
21213;SDS011;10764;50.850;2.904;2023-04-15T03:20:50;0.68;;;0.40;;
21213;SDS011;10764;50.850;2.904;2023-04-15T03:23:17;1.00;;;0.55;;
21213;SDS011;10764;50.850;2.904;2023-04-15T03:25:45;0.90;;;0.50;;
21213;SDS011;10764;50.850;2.904;2023-04-15T03:28:13;0.77;;;0.40;;
21213;SDS011;10764;50.850;2.904;2023-04-15T03:30:40;1.05;;;0.50;;
21213;SDS011;10764;50.850;2.904;2023-04-15T03:33:07;0.80;;;0.47;;
21213;SDS011;10764;50.850;2.904;2023-04-15T03:35:34;0.95;;;0.35;;
21213;SDS011;10764;50.850;2.904;2023-04-15T03:38:01;0.60;;;0.33;;
21213;SDS011;10764;50.850;2.904;2023-04-15T03:40:28;1.08;;;0.40;;
21213;SDS011;10764;50.850;2.904;2023-04-15T03:42:55;1.15;;;0.45;;
21213;SDS011;10764;50.850;2.904;2023-04-15T03:45:22;0.70;;;0.40;;
21213;SDS011;10764;50.850;2.904;2023-04-15T03:47:48;1.13;;;0.57;;
21213;SDS011;10764;50.850;2.904;2023-04-15T03:50:15;0.98;;;0.47;;
21213;SDS011;10764;50.850;2.904;2023-04-15T03:52:43;1.25;;;0.57;;
21213;SDS011;10764;50.850;2.904;2023-04-15T03:55:10;0.63;;;0.30;;
21213;SDS011;10764;50.850;2.904;2023-04-15T03:57:37;0.70;;;0.50;;
21213;SDS011;10764;50.850;2.904;2023-04-15T04:00:04;1.30;;;0.45;;
21213;SDS011;10764;50.850;2.904;2023-04-15T04:02:37;1.23;;;0.40;;
21213;SDS011;10764;50.850;2.904;2023-04-15T04:05:04;0.73;;;0.40;;
21213;SDS011;10764;50.850;2.904;2023-04-15T04:07:31;0.80;;;0.40;;
21213;SDS011;10764;50.850;2.904;2023-04-15T04:09:59;0.95;;;0.40;;
21213;SDS011;10764;50.850;2.904;2023-04-15T04:12:26;0.70;;;0.40;;
21213;SDS011;10764;50.850;2.904;2023-04-15T04:14:54;1.50;;;0.50;;
21213;SDS011;10764;50.850;2.904;2023-04-15T04:17:20;0.73;;;0.40;;
21213;SDS011;10764;50.850;2.904;2023-04-15T04:19:47;1.70;;;0.40;;
21213;SDS011;10764;50.850;2.904;2023-04-15T04:22:14;0.75;;;0.40;;
21213;SDS011;10764;50.850;2.904;2023-04-15T04:24:41;0.85;;;0.50;;
21213;SDS011;10764;50.850;2.904;2023-04-15T04:27:08;0.77;;;0.60;;
21213;SDS011;10764;50.850;2.904;2023-04-15T04:29:35;0.93;;;0.40;;
21213;SDS011;10764;50.850;2.904;2023-04-15T04:32:02;1.33;;;0.50;;
21213;SDS011;10764;50.850;2.904;2023-04-15T04:34:28;0.70;;;0.57;;
21213;SDS011;10764;50.850;2.904;2023-04-15T04:36:55;1.45;;;0.60;;
21213;SDS011;10764;50.850;2.904;2023-04-15T04:39:22;0.90;;;0.50;;
21213;SDS011;10764;50.850;2.904;2023-04-15T04:41:49;1.20;;;0.50;;
21213;SDS011;10764;50.850;2.904;2023-04-15T04:44:17;0.60;;;0.50;;
21213;SDS011;10764;50.850;2.904;2023-04-15T04:46:44;0.73;;;0.50;;
21213;SDS011;10764;50.850;2.904;2023-04-15T04:49:11;1.30;;;0.50;;
21213;SDS011;10764;50.850;2.904;2023-04-15T04:51:37;1.40;;;0.57;;
21213;SDS011;10764;50.850;2.904;2023-04-15T04:54:04;0.70;;;0.40;;
21213;SDS011;10764;50.850;2.904;2023-04-15T04:56:31;1.05;;;0.50;;
21213;SDS011;10764;50.850;2.904;2023-04-15T04:58:59;0.80;;;0.30;;
21213;SDS011;10764;50.850;2.904;2023-04-15T05:01:27;0.40;;;0.30;;
21213;SDS011;10764;50.850;2.904;2023-04-15T05:03:53;1.00;;;0.50;;
21213;SDS011;10764;50.850;2.904;2023-04-15T05:06:20;0.65;;;0.50;;
21213;SDS011;10764;50.850;2.904;2023-04-15T05:08:47;0.90;;;0.40;;
21213;SDS011;10764;50.850;2.904;2023-04-15T05:11:14;0.80;;;0.40;;
21213;SDS011;10764;50.850;2.904;2023-04-15T05:13:41;0.60;;;0.50;;
21213;SDS011;10764;50.850;2.904;2023-04-15T05:16:08;0.90;;;0.40;;
21213;SDS011;10764;50.850;2.904;2023-04-15T05:18:34;0.50;;;0.30;;
21213;SDS011;10764;50.850;2.904;2023-04-15T05:21:02;1.00;;;0.38;;
21213;SDS011;10764;50.850;2.904;2023-04-15T05:23:28;0.50;;;0.40;;
21213;SDS011;10764;50.850;2.904;2023-04-15T05:25:55;0.70;;;0.40;;
21213;SDS011;10764;50.850;2.904;2023-04-15T05:28:22;0.80;;;0.35;;
21213;SDS011;10764;50.850;2.904;2023-04-15T05:30:49;0.60;;;0.30;;
21213;SDS011;10764;50.850;2.904;2023-04-15T05:33:16;0.70;;;0.30;;
21213;SDS011;10764;50.850;2.904;2023-04-15T05:35:42;0.80;;;0.30;;
21213;SDS011;10764;50.850;2.904;2023-04-15T05:38:09;0.68;;;0.32;;
21213;SDS011;10764;50.850;2.904;2023-04-15T05:40:36;0.60;;;0.38;;
21213;SDS011;10764;50.850;2.904;2023-04-15T05:43:04;0.60;;;0.30;;
21213;SDS011;10764;50.850;2.904;2023-04-15T05:45:31;0.80;;;0.40;;
21213;SDS011;10764;50.850;2.904;2023-04-15T05:47:57;0.90;;;0.32;;
21213;SDS011;10764;50.850;2.904;2023-04-15T05:50:24;0.68;;;0.38;;
21213;SDS011;10764;50.850;2.904;2023-04-15T05:52:51;0.85;;;0.40;;
21213;SDS011;10764;50.850;2.904;2023-04-15T05:55:18;0.65;;;0.35;;
21213;SDS011;10764;50.850;2.904;2023-04-15T05:57:45;1.00;;;0.40;;
21213;SDS011;10764;50.850;2.904;2023-04-15T06:00:12;0.93;;;0.50;;
21213;SDS011;10764;50.850;2.904;2023-04-15T06:02:39;0.93;;;0.40;;
21213;SDS011;10764;50.850;2.904;2023-04-15T06:05:07;0.50;;;0.30;;
21213;SDS011;10764;50.850;2.904;2023-04-15T06:07:35;0.98;;;0.50;;
21213;SDS011;10764;50.850;2.904;2023-04-15T06:10:03;2.63;;;0.40;;
21213;SDS011;10764;50.850;2.904;2023-04-15T06:12:31;0.65;;;0.40;;
21213;SDS011;10764;50.850;2.904;2023-04-15T06:14:58;0.90;;;0.50;;
21213;SDS011;10764;50.850;2.904;2023-04-15T06:17:25;0.82;;;0.40;;
21213;SDS011;10764;50.850;2.904;2023-04-15T06:19:52;0.80;;;0.50;;
21213;SDS011;10764;50.850;2.904;2023-04-15T06:22:21;1.40;;;0.70;;
21213;SDS011;10764;50.850;2.904;2023-04-15T06:24:49;1.80;;;1.60;;
21213;SDS011;10764;50.850;2.904;2023-04-15T06:27:16;1.33;;;0.60;;
21213;SDS011;10764;50.850;2.904;2023-04-15T06:29:43;0.80;;;0.50;;
21213;SDS011;10764;50.850;2.904;2023-04-15T06:32:10;1.40;;;0.50;;
21213;SDS011;10764;50.850;2.904;2023-04-15T06:34:38;1.63;;;0.80;;
21213;SDS011;10764;50.850;2.904;2023-04-15T06:37:05;1.30;;;0.40;;
21213;SDS011;10764;50.850;2.904;2023-04-15T06:39:31;1.60;;;0.50;;
21213;SDS011;10764;50.850;2.904;2023-04-15T06:41:58;1.58;;;0.55;;
21213;SDS011;10764;50.850;2.904;2023-04-15T06:44:26;2.63;;;0.60;;
21213;SDS011;10764;50.850;2.904;2023-04-15T06:46:53;1.38;;;0.45;;
21213;SDS011;10764;50.850;2.904;2023-04-15T06:49:20;1.35;;;0.60;;
21213;SDS011;10764;50.850;2.904;2023-04-15T06:51:46;2.28;;;0.70;;
21213;SDS011;10764;50.850;2.904;2023-04-15T06:54:13;2.08;;;0.90;;
21213;SDS011;10764;50.850;2.904;2023-04-15T06:56:40;1.73;;;0.52;;
21213;SDS011;10764;50.850;2.904;2023-04-15T06:59:08;1.60;;;0.60;;
21213;SDS011;10764;50.850;2.904;2023-04-15T07:01:35;1.07;;;0.57;;
21213;SDS011;10764;50.850;2.904;2023-04-15T07:04:02;2.30;;;0.77;;
21213;SDS011;10764;50.850;2.904;2023-04-15T07:06:28;1.20;;;0.50;;
21213;SDS011;10764;50.850;2.904;2023-04-15T07:08:55;2.08;;;0.50;;
21213;SDS011;10764;50.850;2.904;2023-04-15T07:11:22;2.13;;;0.52;;
21213;SDS011;10764;50.850;2.904;2023-04-15T07:13:51;1.67;;;0.80;;
21213;SDS011;10764;50.850;2.904;2023-04-15T07:16:17;3.13;;;0.90;;
21213;SDS011;10764;50.850;2.904;2023-04-15T07:18:44;5.30;;;1.02;;
21213;SDS011;10764;50.850;2.904;2023-04-15T07:21:11;3.25;;;0.90;;
21213;SDS011;10764;50.850;2.904;2023-04-15T07:23:38;3.53;;;0.80;;
21213;SDS011;10764;50.850;2.904;2023-04-15T07:26:05;1.92;;;0.65;;
21213;SDS011;10764;50.850;2.904;2023-04-15T07:28:32;2.13;;;0.80;;
21213;SDS011;10764;50.850;2.904;2023-04-15T07:30:59;3.03;;;0.70;;
21213;SDS011;10764;50.850;2.904;2023-04-15T07:33:26;1.92;;;0.80;;
21213;SDS011;10764;50.850;2.904;2023-04-15T07:35:52;3.30;;;0.77;;
21213;SDS011;10764;50.850;2.904;2023-04-15T07:38:19;2.05;;;0.70;;
21213;SDS011;10764;50.850;2.904;2023-04-15T07:40:46;8.50;;;0.77;;
21213;SDS011;10764;50.850;2.904;2023-04-15T07:43:13;2.65;;;0.70;;
21213;SDS011;10764;50.850;2.904;2023-04-15T07:45:40;1.38;;;0.60;;
21213;SDS011;10764;50.850;2.904;2023-04-15T07:48:07;1.67;;;0.80;;
21213;SDS011;10764;50.850;2.904;2023-04-15T07:50:34;1.88;;;0.63;;
21213;SDS011;10764;50.850;2.904;2023-04-15T07:53:02;1.70;;;0.73;;
21213;SDS011;10764;50.850;2.904;2023-04-15T07:55:29;2.67;;;0.73;;
21213;SDS011;10764;50.850;2.904;2023-04-15T07:57:55;2.53;;;0.70;;
21213;SDS011;10764;50.850;2.904;2023-04-15T08:00:22;3.08;;;0.70;;
21213;SDS011;10764;50.850;2.904;2023-04-15T08:02:50;2.47;;;0.90;;
21213;SDS011;10764;50.850;2.904;2023-04-15T08:05:19;2.25;;;0.80;;
21213;SDS011;10764;50.850;2.904;2023-04-15T08:07:46;2.20;;;0.82;;
21213;SDS011;10764;50.850;2.904;2023-04-15T08:10:13;2.42;;;0.80;;
21213;SDS011;10764;50.850;2.904;2023-04-15T08:12:41;2.00;;;0.90;;
21213;SDS011;10764;50.850;2.904;2023-04-15T08:15:08;2.03;;;0.60;;
21213;SDS011;10764;50.850;2.904;2023-04-15T08:17:35;2.13;;;0.60;;
21213;SDS011;10764;50.850;2.904;2023-04-15T08:20:02;1.33;;;0.63;;
21213;SDS011;10764;50.850;2.904;2023-04-15T08:22:31;2.38;;;0.80;;
21213;SDS011;10764;50.850;2.904;2023-04-15T08:24:58;2.85;;;0.75;;
21213;SDS011;10764;50.850;2.904;2023-04-15T08:27:24;1.27;;;0.73;;
21213;SDS011;10764;50.850;2.904;2023-04-15T08:29:51;2.08;;;1.08;;
21213;SDS011;10764;50.850;2.904;2023-04-15T08:32:18;1.20;;;0.70;;
21213;SDS011;10764;50.850;2.904;2023-04-15T08:34:45;2.00;;;0.73;;
21213;SDS011;10764;50.850;2.904;2023-04-15T08:37:12;2.47;;;0.80;;
21213;SDS011;10764;50.850;2.904;2023-04-15T08:39:39;2.45;;;0.70;;
21213;SDS011;10764;50.850;2.904;2023-04-15T08:42:09;1.63;;;0.80;;
21213;SDS011;10764;50.850;2.904;2023-04-15T08:44:39;1.70;;;0.70;;
21213;SDS011;10764;50.850;2.904;2023-04-15T08:47:07;2.28;;;0.75;;
21213;SDS011;10764;50.850;2.904;2023-04-15T08:49:39;2.05;;;0.70;;
21213;SDS011;10764;50.850;2.904;2023-04-15T08:52:09;1.70;;;0.68;;
21213;SDS011;10764;50.850;2.904;2023-04-15T08:54:36;1.50;;;0.70;;
21213;SDS011;10764;50.850;2.904;2023-04-15T08:57:03;2.00;;;0.88;;
21213;SDS011;10764;50.850;2.904;2023-04-15T08:59:31;2.50;;;1.00;;
21213;SDS011;10764;50.850;2.904;2023-04-15T09:01:58;1.85;;;0.80;;
21213;SDS011;10764;50.850;2.904;2023-04-15T09:04:26;1.83;;;0.70;;
21213;SDS011;10764;50.850;2.904;2023-04-15T09:06:53;1.00;;;0.60;;
21213;SDS011;10764;50.850;2.904;2023-04-15T09:09:20;2.33;;;0.70;;
21213;SDS011;10764;50.850;2.904;2023-04-15T09:11:48;2.03;;;0.65;;
21213;SDS011;10764;50.850;2.904;2023-04-15T09:14:16;1.92;;;0.80;;
21213;SDS011;10764;50.850;2.904;2023-04-15T09:16:56;1.60;;;0.80;;
21213;SDS011;10764;50.850;2.904;2023-04-15T09:19:30;1.50;;;0.70;;
21213;SDS011;10764;50.850;2.904;2023-04-15T09:21:58;1.00;;;0.60;;
21213;SDS011;10764;50.850;2.904;2023-04-15T09:24:32;1.88;;;0.55;;
21213;SDS011;10764;50.850;2.904;2023-04-15T09:27:04;2.05;;;0.70;;
21213;SDS011;10764;50.850;2.904;2023-04-15T09:29:31;2.40;;;0.70;;
21213;SDS011;10764;50.850;2.904;2023-04-15T09:32:14;1.48;;;0.60;;
21213;SDS011;10764;50.850;2.904;2023-04-15T09:34:41;1.48;;;0.50;;
21213;SDS011;10764;50.850;2.904;2023-04-15T09:37:08;1.67;;;0.65;;
21213;SDS011;10764;50.850;2.904;2023-04-15T09:39:49;2.22;;;0.50;;
21213;SDS011;10764;50.850;2.904;2023-04-15T09:42:17;2.20;;;0.60;;
21213;SDS011;10764;50.850;2.904;2023-04-15T09:44:54;1.70;;;0.70;;
21213;SDS011;10764;50.850;2.904;2023-04-15T09:47:27;2.67;;;1.07;;
21213;SDS011;10764;50.850;2.904;2023-04-15T09:49:58;2.20;;;0.63;;
21213;SDS011;10764;50.850;2.904;2023-04-15T09:52:26;1.90;;;0.65;;
21213;SDS011;10764;50.850;2.904;2023-04-15T09:54:55;1.75;;;0.70;;
21213;SDS011;10764;50.850;2.904;2023-04-15T09:57:23;1.30;;;0.60;;
21213;SDS011;10764;50.850;2.904;2023-04-15T09:59:50;1.60;;;0.63;;
21213;SDS011;10764;50.850;2.904;2023-04-15T10:02:17;2.10;;;0.90;;
21213;SDS011;10764;50.850;2.904;2023-04-15T10:04:47;2.00;;;0.70;;
21213;SDS011;10764;50.850;2.904;2023-04-15T10:07:14;2.10;;;0.80;;
21213;SDS011;10764;50.850;2.904;2023-04-15T10:09:45;1.70;;;0.70;;
21213;SDS011;10764;50.850;2.904;2023-04-15T10:12:17;2.70;;;0.90;;
21213;SDS011;10764;50.850;2.904;2023-04-15T10:14:47;1.33;;;0.70;;
21213;SDS011;10764;50.850;2.904;2023-04-15T10:17:20;1.80;;;0.90;;
21213;SDS011;10764;50.850;2.904;2023-04-15T10:19:48;1.90;;;0.70;;
21213;SDS011;10764;50.850;2.904;2023-04-15T10:22:18;2.10;;;0.80;;
21213;SDS011;10764;50.850;2.904;2023-04-15T10:24:45;3.25;;;0.98;;
21213;SDS011;10764;50.850;2.904;2023-04-15T10:27:14;3.43;;;1.17;;
21213;SDS011;10764;50.850;2.904;2023-04-15T10:29:43;3.58;;;1.15;;
21213;SDS011;10764;50.850;2.904;2023-04-15T10:32:10;2.70;;;1.40;;
21213;SDS011;10764;50.850;2.904;2023-04-15T10:34:38;2.60;;;1.00;;
21213;SDS011;10764;50.850;2.904;2023-04-15T10:37:08;2.15;;;0.77;;
21213;SDS011;10764;50.850;2.904;2023-04-15T10:42:13;3.50;;;1.20;;
21213;SDS011;10764;50.850;2.904;2023-04-15T10:44:50;2.35;;;1.10;;
21213;SDS011;10764;50.850;2.904;2023-04-15T10:47:21;3.20;;;1.20;;
21213;SDS011;10764;50.850;2.904;2023-04-15T10:49:55;3.30;;;1.10;;
21213;SDS011;10764;50.850;2.904;2023-04-15T10:52:27;2.93;;;1.00;;
21213;SDS011;10764;50.850;2.904;2023-04-15T10:57:43;2.10;;;0.90;;
21213;SDS011;10764;50.850;2.904;2023-04-15T11:00:10;3.00;;;1.20;;
21213;SDS011;10764;50.850;2.904;2023-04-15T11:05:49;3.50;;;0.90;;
21213;SDS011;10764;50.850;2.904;2023-04-15T11:08:19;2.75;;;1.30;;
21213;SDS011;10764;50.850;2.904;2023-04-15T11:11:06;2.92;;;1.02;;
21213;SDS011;10764;50.850;2.904;2023-04-15T11:13:33;2.50;;;1.10;;
21213;SDS011;10764;50.850;2.904;2023-04-15T11:16:01;2.75;;;1.10;;
21213;SDS011;10764;50.850;2.904;2023-04-15T11:18:29;3.10;;;1.20;;
21213;SDS011;10764;50.850;2.904;2023-04-15T11:20:59;3.55;;;1.10;;
21213;SDS011;10764;50.850;2.904;2023-04-15T11:23:28;1.70;;;1.00;;
21213;SDS011;10764;50.850;2.904;2023-04-15T11:25:57;2.07;;;1.00;;
21213;SDS011;10764;50.850;2.904;2023-04-15T11:28:25;2.10;;;1.00;;
21213;SDS011;10764;50.850;2.904;2023-04-15T11:30:54;3.08;;;1.10;;
21213;SDS011;10764;50.850;2.904;2023-04-15T11:33:21;2.95;;;1.10;;
21213;SDS011;10764;50.850;2.904;2023-04-15T11:35:49;3.17;;;1.30;;
21213;SDS011;10764;50.850;2.904;2023-04-15T11:38:20;6.68;;;2.17;;
21213;SDS011;10764;50.850;2.904;2023-04-15T11:40:47;5.67;;;1.90;;
21213;SDS011;10764;50.850;2.904;2023-04-15T11:43:18;6.60;;;2.05;;
21213;SDS011;10764;50.850;2.904;2023-04-15T11:48:24;5.17;;;2.03;;
21213;SDS011;10764;50.850;2.904;2023-04-15T11:53:25;4.70;;;1.97;;
21213;SDS011;10764;50.850;2.904;2023-04-15T11:56:21;6.30;;;2.13;;
21213;SDS011;10764;50.850;2.904;2023-04-15T11:58:54;6.93;;;1.70;;
21213;SDS011;10764;50.850;2.904;2023-04-15T12:01:45;5.72;;;1.88;;
21213;SDS011;10764;50.850;2.904;2023-04-15T12:04:13;5.50;;;1.90;;
21213;SDS011;10764;50.850;2.904;2023-04-15T12:06:43;4.85;;;1.70;;
21213;SDS011;10764;50.850;2.904;2023-04-15T12:09:11;5.10;;;1.73;;
21213;SDS011;10764;50.850;2.904;2023-04-15T12:11:43;5.07;;;1.92;;
21213;SDS011;10764;50.850;2.904;2023-04-15T12:14:12;3.85;;;1.88;;
21213;SDS011;10764;50.850;2.904;2023-04-15T12:17:02;5.37;;;1.53;;
21213;SDS011;10764;50.850;2.904;2023-04-15T12:19:33;5.20;;;1.73;;
21213;SDS011;10764;50.850;2.904;2023-04-15T12:22:03;3.97;;;1.70;;
21213;SDS011;10764;50.850;2.904;2023-04-15T12:24:32;4.00;;;1.70;;
21213;SDS011;10764;50.850;2.904;2023-04-15T12:27:01;3.72;;;1.40;;
21213;SDS011;10764;50.850;2.904;2023-04-15T12:29:29;4.13;;;1.50;;
21213;SDS011;10764;50.850;2.904;2023-04-15T12:31:58;5.18;;;1.60;;
21213;SDS011;10764;50.850;2.904;2023-04-15T12:34:37;3.97;;;1.48;;
21213;SDS011;10764;50.850;2.904;2023-04-15T12:37:06;4.22;;;1.42;;
21213;SDS011;10764;50.850;2.904;2023-04-15T12:39:36;3.20;;;1.40;;
21213;SDS011;10764;50.850;2.904;2023-04-15T12:42:07;3.78;;;1.42;;
21213;SDS011;10764;50.850;2.904;2023-04-15T12:44:35;3.53;;;1.45;;
21213;SDS011;10764;50.850;2.904;2023-04-15T12:47:04;4.53;;;1.27;;
21213;SDS011;10764;50.850;2.904;2023-04-15T12:49:32;4.90;;;1.33;;
21213;SDS011;10764;50.850;2.904;2023-04-15T12:52:00;3.33;;;1.50;;
21213;SDS011;10764;50.850;2.904;2023-04-15T12:54:28;3.08;;;1.20;;
21213;SDS011;10764;50.850;2.904;2023-04-15T12:56:55;2.95;;;1.20;;
21213;SDS011;10764;50.850;2.904;2023-04-15T12:59:23;4.03;;;1.30;;
21213;SDS011;10764;50.850;2.904;2023-04-15T13:01:51;3.83;;;1.38;;
21213;SDS011;10764;50.850;2.904;2023-04-15T13:04:19;2.50;;;1.05;;
21213;SDS011;10764;50.850;2.904;2023-04-15T13:06:47;2.50;;;1.20;;
21213;SDS011;10764;50.850;2.904;2023-04-15T13:09:14;3.30;;;1.23;;
21213;SDS011;10764;50.850;2.904;2023-04-15T13:11:42;3.58;;;1.40;;
21213;SDS011;10764;50.850;2.904;2023-04-15T13:14:09;3.85;;;1.50;;
21213;SDS011;10764;50.850;2.904;2023-04-15T13:16:38;2.80;;;1.20;;
21213;SDS011;10764;50.850;2.904;2023-04-15T13:19:06;2.20;;;1.20;;
21213;SDS011;10764;50.850;2.904;2023-04-15T13:21:33;3.30;;;1.20;;
21213;SDS011;10764;50.850;2.904;2023-04-15T13:24:01;2.65;;;1.23;;
21213;SDS011;10764;50.850;2.904;2023-04-15T13:26:29;3.58;;;1.20;;
21213;SDS011;10764;50.850;2.904;2023-04-15T13:28:56;1.80;;;1.05;;
21213;SDS011;10764;50.850;2.904;2023-04-15T13:31:23;2.67;;;1.30;;
21213;SDS011;10764;50.850;2.904;2023-04-15T13:33:50;2.60;;;1.08;;
21213;SDS011;10764;50.850;2.904;2023-04-15T13:36:17;2.22;;;1.05;;
21213;SDS011;10764;50.850;2.904;2023-04-15T13:38:44;2.80;;;1.05;;
21213;SDS011;10764;50.850;2.904;2023-04-15T13:41:12;2.47;;;1.23;;
21213;SDS011;10764;50.850;2.904;2023-04-15T13:43:39;2.63;;;1.10;;
21213;SDS011;10764;50.850;2.904;2023-04-15T13:46:06;2.67;;;1.10;;
21213;SDS011;10764;50.850;2.904;2023-04-15T13:48:33;3.08;;;1.20;;
21213;SDS011;10764;50.850;2.904;2023-04-15T13:51:00;3.13;;;1.17;;
21213;SDS011;10764;50.850;2.904;2023-04-15T13:53:27;3.72;;;1.35;;
21213;SDS011;10764;50.850;2.904;2023-04-15T13:56:08;1.65;;;0.98;;
21213;SDS011;10764;50.850;2.904;2023-04-15T13:58:35;2.17;;;1.00;;
21213;SDS011;10764;50.850;2.904;2023-04-15T14:01:03;3.03;;;1.00;;
21213;SDS011;10764;50.850;2.904;2023-04-15T14:03:36;2.47;;;0.98;;
21213;SDS011;10764;50.850;2.904;2023-04-15T14:06:04;4.00;;;1.20;;
21213;SDS011;10764;50.850;2.904;2023-04-15T14:08:31;2.70;;;1.25;;
21213;SDS011;10764;50.850;2.904;2023-04-15T14:10:58;2.30;;;1.10;;
21213;SDS011;10764;50.850;2.904;2023-04-15T14:13:25;2.33;;;1.00;;
21213;SDS011;10764;50.850;2.904;2023-04-15T14:15:52;2.07;;;1.00;;
21213;SDS011;10764;50.850;2.904;2023-04-15T14:18:19;1.63;;;1.00;;
21213;SDS011;10764;50.850;2.904;2023-04-15T14:20:46;2.20;;;1.10;;
21213;SDS011;10764;50.850;2.904;2023-04-15T14:23:12;2.10;;;0.90;;
21213;SDS011;10764;50.850;2.904;2023-04-15T14:25:39;2.30;;;0.98;;
21213;SDS011;10764;50.850;2.904;2023-04-15T14:28:06;2.20;;;1.00;;
21213;SDS011;10764;50.850;2.904;2023-04-15T14:30:33;1.90;;;0.93;;
21213;SDS011;10764;50.850;2.904;2023-04-15T14:33:00;1.67;;;1.00;;
21213;SDS011;10764;50.850;2.904;2023-04-15T14:35:27;4.63;;;1.23;;
21213;SDS011;10764;50.850;2.904;2023-04-15T14:37:54;8.75;;;1.50;;
21213;SDS011;10764;50.850;2.904;2023-04-15T14:40:21;7.70;;;1.40;;
21213;SDS011;10764;50.850;2.904;2023-04-15T14:42:48;11.02;;;1.75;;
21213;SDS011;10764;50.850;2.904;2023-04-15T14:45:15;10.40;;;1.95;;
21213;SDS011;10764;50.850;2.904;2023-04-15T14:47:43;10.60;;;1.70;;
21213;SDS011;10764;50.850;2.904;2023-04-15T14:50:10;6.13;;;1.60;;
21213;SDS011;10764;50.850;2.904;2023-04-15T14:52:37;13.40;;;1.95;;
21213;SDS011;10764;50.850;2.904;2023-04-15T14:55:05;8.30;;;1.70;;
21213;SDS011;10764;50.850;2.904;2023-04-15T14:57:36;7.07;;;1.80;;
21213;SDS011;10764;50.850;2.904;2023-04-15T15:00:04;8.73;;;1.70;;
21213;SDS011;10764;50.850;2.904;2023-04-15T15:02:32;8.32;;;1.58;;
21213;SDS011;10764;50.850;2.904;2023-04-15T15:05:05;8.05;;;1.50;;
21213;SDS011;10764;50.850;2.904;2023-04-15T15:07:33;12.60;;;1.80;;